createdAt,value
2023-07-06T00:00:02.339Z,230.49
2023-07-06T00:01:02.367Z,230.53
2023-07-06T00:02:02.454Z,233.26
2023-07-06T00:03:02.461Z,230.94
2023-07-06T00:04:02.492Z,230.91
2023-07-06T00:05:02.447Z,230.52
2023-07-06T00:06:02.468Z,232.11
2023-07-06T00:07:02.497Z,230.59
2023-07-06T00:08:02.517Z,230.95
2023-07-06T00:09:02.538Z,228.13
2023-07-06T00:10:02.571Z,231.91
2023-07-06T00:11:02.596Z,229.49
2023-07-06T00:12:02.616Z,230.42
2023-07-06T00:13:02.639Z,230.77
2023-07-06T00:14:02.722Z,229.45
2023-07-06T00:15:02.694Z,229.83
2023-07-06T00:16:02.728Z,231.05
2023-07-06T00:17:02.729Z,230.62
2023-07-06T00:18:02.814Z,229.33
2023-07-06T00:19:02.789Z,232.55
2023-07-06T00:20:02.810Z,231.52
2023-07-06T00:21:02.822Z,230.09
2023-07-06T00:22:02.832Z,228.43
2023-07-06T00:23:02.862Z,231.59
2023-07-06T00:24:02.879Z,230.52
2023-07-06T00:25:02.911Z,231.04
2023-07-06T00:26:02.935Z,228.36
2023-07-06T00:27:02.958Z,231.52
2023-07-06T00:28:02.981Z,229.09
2023-07-06T00:29:02.999Z,230.30
2023-07-06T00:30:03.034Z,230.02
2023-07-06T00:31:03.045Z,230.56
2023-07-06T00:32:03.088Z,228.99
2023-07-06T00:33:03.097Z,229.85
2023-07-06T00:34:03.106Z,228.94
2023-07-06T00:35:03.129Z,229.42
2023-07-06T00:36:03.145Z,228.41
2023-07-06T00:37:03.179Z,229.52
2023-07-06T00:38:03.176Z,228.77
2023-07-06T00:39:03.215Z,229.60
2023-07-06T00:40:03.228Z,228.23
2023-07-06T00:41:03.248Z,227.88
2023-07-06T00:42:03.268Z,229.70
2023-07-06T00:43:03.291Z,227.21
2023-07-06T00:44:03.310Z,227.76
2023-07-06T00:45:03.328Z,229.29
2023-07-06T00:46:03.369Z,228.79
2023-07-06T00:47:03.366Z,225.43
2023-07-06T00:48:03.428Z,230.95
2023-07-06T00:49:03.412Z,226.30
2023-07-06T00:50:03.449Z,227.95
2023-07-06T00:51:03.466Z,227.80
2023-07-06T00:52:03.487Z,228.93
2023-07-06T00:53:03.524Z,227.11
2023-07-06T00:54:03.528Z,228.05
2023-07-06T00:55:03.559Z,228.70
2023-07-06T00:56:03.579Z,227.25
2023-07-06T00:57:03.605Z,228.91
2023-07-06T00:58:03.657Z,227.07
2023-07-06T00:59:03.682Z,230.18
2023-07-06T01:00:03.686Z,226.38
2023-07-06T01:01:03.707Z,226.52
2023-07-06T01:02:04.656Z,226.82
2023-07-06T01:03:03.760Z,227.64
2023-07-06T01:04:03.769Z,227.34
2023-07-06T01:05:03.817Z,227.75
2023-07-06T01:06:03.859Z,226.41
2023-07-06T01:07:03.905Z,228.37
2023-07-06T01:08:03.914Z,227.91
2023-07-06T01:09:03.979Z,227.62
2023-07-06T01:10:04.035Z,228.13
2023-07-06T01:11:03.983Z,228.10
2023-07-06T01:12:04.205Z,225.26
2023-07-06T01:13:04.045Z,227.24
2023-07-06T01:14:04.129Z,227.39
2023-07-06T01:15:04.139Z,228.03
2023-07-06T01:16:04.167Z,226.26
2023-07-06T01:17:04.154Z,227.13
2023-07-06T01:18:04.204Z,226.47
2023-07-06T01:19:04.249Z,227.84
2023-07-06T01:20:04.286Z,226.34
2023-07-06T01:21:04.307Z,225.86
2023-07-06T01:22:04.306Z,228.57
2023-07-06T01:23:04.381Z,226.80
2023-07-06T01:24:04.380Z,227.23
2023-07-06T01:25:04.404Z,225.31
2023-07-06T01:26:04.425Z,225.62
2023-07-06T01:27:04.423Z,227.99
2023-07-06T01:28:04.425Z,226.83
2023-07-06T01:29:04.521Z,225.29
2023-07-06T01:30:04.421Z,223.78
2023-07-06T01:31:04.417Z,226.40
2023-07-06T01:32:04.397Z,226.20
2023-07-06T01:33:04.443Z,225.12
2023-07-06T01:34:04.490Z,225.95
2023-07-06T01:35:04.499Z,226.26
2023-07-06T01:36:04.533Z,227.27
2023-07-06T01:37:04.579Z,224.41
2023-07-06T01:38:04.599Z,224.66
2023-07-06T01:39:04.624Z,225.51
2023-07-06T01:40:04.651Z,226.05
2023-07-06T01:41:04.668Z,225.93
2023-07-06T01:42:04.676Z,225.69
2023-07-06T01:43:04.674Z,223.75
2023-07-06T01:44:04.660Z,224.76
2023-07-06T01:45:04.658Z,224.85
2023-07-06T01:46:04.696Z,224.98
2023-07-06T01:47:04.734Z,225.17
2023-07-06T01:48:04.746Z,227.05
2023-07-06T01:49:04.740Z,224.95
2023-07-06T01:50:04.762Z,223.81
2023-07-06T01:51:04.755Z,224.70
2023-07-06T01:52:04.826Z,224.15
2023-07-06T01:53:04.827Z,223.69
2023-07-06T01:54:04.882Z,224.29
2023-07-06T01:55:04.881Z,223.86
2023-07-06T01:56:04.900Z,224.76
2023-07-06T01:57:04.937Z,224.62
2023-07-06T01:58:04.951Z,224.60
2023-07-06T01:59:04.959Z,223.50
2023-07-06T02:00:04.957Z,224.00
2023-07-06T02:01:05.024Z,224.38
2023-07-06T02:02:05.012Z,222.92
2023-07-06T02:03:05.020Z,225.15
2023-07-06T02:04:04.988Z,222.66
2023-07-06T02:05:05.001Z,225.06
2023-07-06T02:06:05.008Z,225.73
2023-07-06T02:07:05.027Z,223.95
2023-07-06T02:08:05.051Z,223.58
2023-07-06T02:09:05.060Z,223.82
2023-07-06T02:10:05.018Z,223.13
2023-07-06T02:11:05.015Z,221.22
2023-07-06T02:12:05.006Z,222.47
2023-07-06T02:13:05.030Z,224.91
2023-07-06T02:14:05.078Z,225.05
2023-07-06T02:15:05.079Z,220.49
2023-07-06T02:16:05.074Z,222.79
2023-07-06T02:17:05.106Z,223.03
2023-07-06T02:18:05.114Z,223.12
2023-07-06T02:19:05.190Z,223.17
2023-07-06T02:20:05.203Z,222.14
2023-07-06T02:21:05.266Z,222.34
2023-07-06T02:22:05.264Z,224.09
2023-07-06T02:23:05.300Z,222.71
2023-07-06T02:24:05.338Z,222.36
2023-07-06T02:25:05.373Z,224.91
2023-07-06T02:26:05.366Z,222.51
2023-07-06T02:27:05.386Z,222.48
2023-07-06T02:28:05.398Z,221.56
2023-07-06T02:29:05.393Z,222.25
2023-07-06T02:30:05.402Z,222.60
2023-07-06T02:31:05.422Z,223.84
2023-07-06T02:32:05.424Z,221.85
2023-07-06T02:33:05.393Z,223.21
2023-07-06T02:34:05.366Z,220.90
2023-07-06T02:35:05.352Z,221.45
2023-07-06T02:36:05.328Z,221.87
2023-07-06T02:37:05.329Z,222.52
2023-07-06T02:38:05.310Z,223.61
2023-07-06T02:39:05.330Z,221.32
2023-07-06T02:40:05.307Z,222.09
2023-07-06T02:41:05.313Z,222.77
2023-07-06T02:42:05.285Z,221.00
2023-07-06T02:43:05.384Z,221.61
2023-07-06T02:44:05.341Z,219.36
2023-07-06T02:45:05.360Z,220.17
2023-07-06T02:46:05.386Z,220.07
2023-07-06T02:47:05.271Z,219.09
2023-07-06T02:48:05.376Z,221.14
2023-07-06T02:49:05.285Z,220.97
2023-07-06T02:50:05.271Z,220.15
2023-07-06T02:51:05.240Z,219.64
2023-07-06T02:52:05.217Z,219.47
2023-07-06T02:53:05.194Z,220.79
2023-07-06T02:54:05.182Z,223.08
2023-07-06T02:55:05.168Z,220.90
2023-07-06T02:56:05.179Z,220.93
2023-07-06T02:57:05.191Z,221.81
2023-07-06T02:58:05.232Z,222.55
2023-07-06T02:59:05.192Z,219.67
2023-07-06T03:00:05.213Z,220.05
2023-07-06T03:01:05.244Z,218.89
2023-07-06T03:02:05.246Z,223.25
2023-07-06T03:03:05.225Z,218.90
2023-07-06T03:04:05.237Z,219.73
2023-07-06T03:05:05.306Z,221.79
2023-07-06T03:06:05.235Z,220.41
2023-07-06T03:07:05.253Z,219.85
2023-07-06T03:08:05.198Z,218.40
2023-07-06T03:09:05.176Z,220.72
2023-07-06T03:10:05.182Z,218.15
2023-07-06T03:11:05.211Z,220.51
2023-07-06T03:12:05.200Z,218.54
2023-07-06T03:13:05.185Z,219.47
2023-07-06T03:14:05.224Z,219.82
2023-07-06T03:15:05.321Z,218.85
2023-07-06T03:16:05.208Z,218.87
2023-07-06T03:17:05.192Z,218.48
2023-07-06T03:18:05.162Z,219.09
2023-07-06T03:19:05.130Z,220.96
2023-07-06T03:20:05.100Z,217.98
2023-07-06T03:21:05.090Z,219.51
2023-07-06T03:22:05.075Z,218.41
2023-07-06T03:23:05.053Z,218.87
2023-07-06T03:24:05.029Z,217.48
2023-07-06T03:25:05.086Z,219.56
2023-07-06T03:26:04.963Z,217.90
2023-07-06T03:27:04.971Z,218.38
2023-07-06T03:28:04.919Z,217.68
2023-07-06T03:29:04.927Z,219.08
2023-07-06T03:30:04.894Z,218.81
2023-07-06T03:31:04.864Z,218.70
2023-07-06T03:32:04.881Z,217.30
2023-07-06T03:33:04.878Z,217.79
2023-07-06T03:34:04.809Z,217.83
2023-07-06T03:35:04.795Z,218.42
2023-07-06T03:36:04.761Z,217.16
2023-07-06T03:37:04.737Z,219.29
2023-07-06T03:38:04.712Z,216.56
2023-07-06T03:39:04.702Z,218.23
2023-07-06T03:40:04.711Z,219.14
2023-07-06T03:41:04.699Z,216.91
2023-07-06T03:42:04.685Z,219.01
2023-07-06T03:43:04.676Z,216.45
2023-07-06T03:44:04.647Z,217.30
2023-07-06T03:45:04.637Z,215.58
2023-07-06T03:46:04.711Z,217.56
2023-07-06T03:47:04.605Z,218.79
2023-07-06T03:48:04.590Z,215.82
2023-07-06T03:49:04.751Z,215.95
2023-07-06T03:50:04.569Z,216.66
2023-07-06T03:51:04.552Z,217.52
2023-07-06T03:52:04.532Z,217.37
2023-07-06T03:53:04.522Z,216.47
2023-07-06T03:54:04.500Z,217.05
2023-07-06T03:55:04.482Z,214.99
2023-07-06T03:56:04.475Z,217.65
2023-07-06T03:57:04.470Z,218.08
2023-07-06T03:58:06.017Z,214.07
2023-07-06T03:59:04.469Z,214.85
2023-07-06T04:00:04.435Z,217.30
2023-07-06T04:01:04.482Z,217.07
2023-07-06T04:02:04.406Z,218.98
2023-07-06T04:03:04.527Z,216.75
2023-07-06T04:04:04.452Z,215.58
2023-07-06T04:05:04.350Z,213.58
2023-07-06T04:06:04.450Z,217.26
2023-07-06T04:07:04.322Z,215.87
2023-07-06T04:08:04.312Z,215.63
2023-07-06T04:09:04.329Z,216.20
2023-07-06T04:10:04.355Z,219.50
2023-07-06T04:11:04.300Z,215.21
2023-07-06T04:12:04.272Z,215.84
2023-07-06T04:13:04.268Z,213.25
2023-07-06T04:14:04.298Z,215.92
2023-07-06T04:15:04.247Z,213.37
2023-07-06T04:16:04.306Z,214.81
2023-07-06T04:17:04.218Z,214.91
2023-07-06T04:18:04.241Z,216.45
2023-07-06T04:19:04.266Z,216.08
2023-07-06T04:20:04.191Z,214.64
2023-07-06T04:21:04.164Z,214.36
2023-07-06T04:22:04.149Z,214.19
2023-07-06T04:23:04.362Z,213.36
2023-07-06T04:24:04.104Z,214.55
2023-07-06T04:25:04.096Z,217.59
2023-07-06T04:26:04.073Z,215.43
2023-07-06T04:27:04.062Z,214.93
2023-07-06T04:28:04.127Z,214.64
2023-07-06T04:29:04.014Z,213.59
2023-07-06T04:30:03.976Z,215.13
2023-07-06T04:31:04.074Z,212.71
2023-07-06T04:32:03.954Z,215.26
2023-07-06T04:33:03.949Z,215.73
2023-07-06T04:34:03.904Z,213.87
2023-07-06T04:35:03.854Z,212.99
2023-07-06T04:36:03.877Z,216.52
2023-07-06T04:37:03.827Z,212.91
2023-07-06T04:38:03.829Z,214.34
2023-07-06T04:39:03.817Z,212.30
2023-07-06T04:40:03.804Z,212.43
2023-07-06T04:41:03.795Z,215.82
2023-07-06T04:42:03.835Z,215.54
2023-07-06T04:43:03.803Z,211.58
2023-07-06T04:44:03.785Z,212.91
2023-07-06T04:45:03.766Z,212.57
2023-07-06T04:46:03.743Z,213.45
2023-07-06T04:47:03.804Z,213.91
2023-07-06T04:48:03.772Z,214.26
2023-07-06T04:49:03.788Z,212.42
2023-07-06T04:50:03.754Z,212.92
2023-07-06T04:51:03.742Z,214.48
2023-07-06T04:52:03.733Z,213.62
2023-07-06T04:53:03.754Z,211.51
2023-07-06T04:54:03.735Z,211.90
2023-07-06T04:55:03.718Z,211.55
2023-07-06T04:56:03.704Z,214.88
2023-07-06T04:57:03.719Z,212.61
2023-07-06T04:58:03.738Z,213.28
2023-07-06T04:59:03.727Z,214.43
2023-07-06T05:00:03.694Z,213.05
2023-07-06T05:01:03.754Z,211.25
2023-07-06T05:02:03.724Z,213.66
2023-07-06T05:03:03.842Z,215.10
2023-07-06T05:04:03.917Z,216.53
2023-07-06T05:05:03.732Z,214.91
2023-07-06T05:06:03.706Z,211.14
2023-07-06T05:07:03.699Z,211.49
2023-07-06T05:08:03.703Z,212.08
2023-07-06T05:09:03.678Z,216.07
2023-07-06T05:10:03.653Z,212.31
2023-07-06T05:11:03.607Z,213.27
2023-07-06T05:12:03.586Z,212.76
2023-07-06T05:13:03.568Z,211.27
2023-07-06T05:14:03.629Z,213.62
2023-07-06T05:15:03.512Z,212.82
2023-07-06T05:16:03.492Z,211.48
2023-07-06T05:17:03.547Z,212.06
2023-07-06T05:18:03.546Z,211.08
2023-07-06T05:19:03.436Z,211.29
2023-07-06T05:20:03.388Z,213.79
2023-07-06T05:21:03.386Z,212.83
2023-07-06T05:22:03.382Z,211.37
2023-07-06T05:23:03.401Z,209.78
2023-07-06T05:24:03.431Z,213.80
2023-07-06T05:25:03.739Z,211.30
2023-07-06T05:26:03.416Z,211.17
2023-07-06T05:27:03.404Z,210.68
2023-07-06T05:28:03.388Z,210.46
2023-07-06T05:29:03.361Z,211.67
2023-07-06T05:30:03.352Z,211.36
2023-07-06T05:31:03.569Z,210.19
2023-07-06T05:32:03.391Z,211.13
2023-07-06T05:33:03.407Z,210.05
2023-07-06T05:34:03.430Z,211.24
2023-07-06T05:35:03.434Z,211.09
2023-07-06T05:36:03.468Z,213.16
2023-07-06T05:37:03.438Z,213.26
2023-07-06T05:38:03.418Z,213.29
2023-07-06T05:39:03.410Z,213.37
2023-07-06T05:40:03.379Z,213.34
2023-07-06T05:41:03.372Z,211.31
2023-07-06T05:42:03.310Z,213.38
2023-07-06T05:43:03.279Z,211.66
2023-07-06T05:44:03.261Z,211.80
2023-07-06T05:45:03.262Z,212.79
2023-07-06T05:46:03.248Z,212.43
2023-07-06T05:47:03.223Z,211.09
2023-07-06T05:48:03.263Z,211.71
2023-07-06T05:49:03.196Z,209.77
2023-07-06T05:50:03.229Z,212.27
2023-07-06T05:51:03.182Z,209.12
2023-07-06T05:52:03.135Z,212.63
2023-07-06T05:53:03.155Z,209.37
2023-07-06T05:54:05.272Z,209.19
2023-07-06T05:55:03.093Z,211.25
2023-07-06T05:56:03.089Z,210.28
2023-07-06T05:57:03.092Z,207.90
2023-07-06T05:58:03.121Z,213.45
2023-07-06T05:59:03.151Z,208.56
2023-07-06T06:00:03.167Z,208.82
2023-07-06T06:01:03.142Z,208.99
2023-07-06T06:02:03.138Z,208.99
2023-07-06T06:03:03.168Z,208.96
2023-07-06T06:04:03.132Z,209.14
2023-07-06T06:05:03.054Z,210.23
2023-07-06T06:06:03.024Z,208.27
2023-07-06T06:07:03.030Z,207.43
2023-07-06T06:08:02.997Z,209.17
2023-07-06T06:09:03.000Z,206.85
2023-07-06T06:10:02.972Z,208.98
2023-07-06T06:11:02.950Z,208.13
2023-07-06T06:12:02.925Z,207.52
2023-07-06T06:13:02.919Z,207.22
2023-07-06T06:14:03.068Z,207.17
2023-07-06T06:15:02.889Z,207.65
2023-07-06T06:16:02.919Z,206.38
2023-07-06T06:17:02.973Z,208.35
2023-07-06T06:18:02.963Z,207.35
2023-07-06T06:19:02.953Z,207.85
2023-07-06T06:20:02.985Z,207.81
2023-07-06T06:21:03.011Z,204.57
2023-07-06T06:22:03.045Z,208.06
2023-07-06T06:23:03.086Z,202.08
2023-07-06T06:24:03.116Z,204.36
2023-07-06T06:25:03.156Z,203.13
2023-07-06T06:26:03.204Z,204.45
2023-07-06T06:27:03.229Z,206.65
2023-07-06T06:28:03.262Z,205.59
2023-07-06T06:29:03.313Z,201.57
2023-07-06T06:30:03.341Z,202.52
2023-07-06T06:31:03.375Z,205.25
2023-07-06T06:32:03.455Z,202.20
2023-07-06T06:33:03.491Z,204.40
2023-07-06T06:34:03.459Z,203.93
2023-07-06T06:35:03.455Z,199.36
2023-07-06T06:36:03.455Z,204.01
2023-07-06T06:37:03.424Z,201.87
2023-07-06T06:38:03.418Z,201.85
2023-07-06T06:39:03.443Z,202.51
2023-07-06T06:40:03.441Z,199.49
2023-07-06T06:41:03.399Z,203.91
2023-07-06T06:42:03.384Z,205.44
2023-07-06T06:43:03.402Z,203.63
2023-07-06T06:44:03.424Z,203.81
2023-07-06T06:45:03.437Z,203.96
2023-07-06T06:46:03.427Z,200.88
2023-07-06T06:47:04.583Z,197.18
2023-07-06T06:48:03.494Z,199.69
2023-07-06T06:49:03.412Z,194.85
2023-07-06T06:50:03.447Z,194.05
2023-07-06T06:51:03.431Z,201.76
2023-07-06T06:52:03.429Z,196.49
2023-07-06T06:53:04.268Z,198.95
2023-07-06T06:54:03.431Z,199.95
2023-07-06T06:55:03.448Z,201.54
2023-07-06T06:56:03.449Z,194.66
2023-07-06T06:57:03.492Z,199.14
2023-07-06T06:58:03.524Z,196.35
2023-07-06T06:59:03.553Z,197.69
2023-07-06T07:00:03.550Z,195.12
2023-07-06T07:01:03.519Z,197.89
2023-07-06T07:02:04.422Z,199.57
2023-07-06T07:03:03.516Z,196.66
2023-07-06T07:04:03.525Z,197.70
2023-07-06T07:05:03.487Z,192.92
2023-07-06T07:06:03.509Z,194.87
2023-07-06T07:07:03.543Z,196.14
2023-07-06T07:08:03.562Z,195.42
2023-07-06T07:09:03.557Z,196.27
2023-07-06T07:10:03.590Z,192.35
2023-07-06T07:11:14.273Z,197.13
2023-07-06T07:12:04.598Z,197.29
2023-07-06T07:13:03.578Z,197.93
2023-07-06T07:14:03.642Z,197.60
2023-07-06T07:15:03.603Z,197.49
2023-07-06T07:16:03.615Z,193.59
2023-07-06T07:17:03.532Z,193.41
2023-07-06T07:18:03.599Z,193.61
2023-07-06T07:19:03.476Z,194.33
2023-07-06T07:20:03.456Z,196.13
2023-07-06T07:21:03.433Z,195.36
2023-07-06T07:22:03.404Z,193.46
2023-07-06T07:23:03.394Z,194.16
2023-07-06T07:24:03.376Z,193.71
2023-07-06T07:25:03.353Z,192.64
2023-07-06T07:26:03.338Z,192.71
2023-07-06T07:27:03.322Z,195.61
2023-07-06T07:28:03.300Z,194.58
2023-07-06T07:29:03.286Z,191.65
2023-07-06T07:30:03.275Z,195.23
2023-07-06T07:31:03.290Z,194.68
2023-07-06T07:32:03.285Z,190.91
2023-07-06T07:33:03.320Z,192.85
2023-07-06T07:34:03.331Z,196.72
2023-07-06T07:35:03.326Z,192.24
2023-07-06T07:36:03.348Z,193.52
2023-07-06T07:37:03.348Z,190.50
2023-07-06T07:38:03.373Z,195.45
2023-07-06T07:39:03.388Z,195.79
2023-07-06T07:40:03.396Z,191.15
2023-07-06T07:41:03.367Z,192.67
2023-07-06T07:42:03.352Z,190.75
2023-07-06T07:43:03.357Z,192.03
2023-07-06T07:44:03.331Z,193.67
2023-07-06T07:45:03.332Z,192.21
2023-07-06T07:46:03.376Z,189.04
2023-07-06T07:47:03.309Z,190.53
2023-07-06T07:48:03.350Z,192.96
2023-07-06T07:49:03.329Z,192.25
2023-07-06T07:50:03.317Z,190.47
2023-07-06T07:51:03.292Z,190.51
2023-07-06T07:52:03.347Z,191.32
2023-07-06T07:53:03.257Z,193.66
2023-07-06T07:54:03.237Z,191.54
2023-07-06T07:55:03.209Z,189.02
2023-07-06T07:56:03.181Z,191.73
2023-07-06T07:57:03.172Z,191.01
2023-07-06T07:58:03.155Z,190.83
2023-07-06T07:59:03.155Z,192.04
2023-07-06T08:00:03.110Z,192.82
2023-07-06T08:01:03.219Z,190.05
2023-07-06T08:02:03.137Z,191.59
2023-07-06T08:03:03.253Z,193.07
2023-07-06T08:04:03.108Z,191.15
2023-07-06T08:05:03.060Z,186.74
2023-07-06T08:06:02.983Z,191.73
2023-07-06T08:07:03.017Z,190.28
2023-07-06T08:08:03.040Z,188.72
2023-07-06T08:09:03.024Z,191.45
2023-07-06T08:10:03.097Z,191.82
2023-07-06T08:11:03.108Z,191.01
2023-07-06T08:12:03.132Z,191.84
2023-07-06T08:13:03.141Z,189.08
2023-07-06T08:14:03.204Z,193.07
2023-07-06T08:15:03.143Z,189.44
2023-07-06T08:16:03.177Z,191.94
2023-07-06T08:17:03.176Z,189.42
2023-07-06T08:18:03.180Z,189.38
2023-07-06T08:19:12.924Z,191.87
2023-07-06T08:20:40.519Z,191.97
2023-07-06T08:21:40.311Z,192.28
2023-07-06T08:23:03.045Z,192.66
2023-07-06T08:24:03.037Z,194.26
2023-07-06T08:25:03.059Z,196.44
2023-07-06T08:26:02.996Z,196.87
2023-07-06T08:27:02.974Z,196.30
2023-07-06T08:28:02.975Z,195.91
2023-07-06T08:29:02.945Z,194.90
2023-07-06T08:30:02.910Z,190.59
2023-07-06T08:31:02.905Z,189.37
2023-07-06T08:32:02.858Z,192.77
2023-07-06T08:33:02.878Z,191.85
2023-07-06T08:34:02.813Z,189.73
2023-07-06T08:35:02.794Z,189.49
2023-07-06T08:36:02.765Z,187.01
2023-07-06T08:37:02.735Z,192.05
2023-07-06T08:38:02.724Z,191.54
2023-07-06T08:39:02.708Z,192.00
2023-07-06T08:40:02.721Z,192.77
2023-07-06T08:41:02.677Z,190.46
2023-07-06T08:42:02.661Z,189.20
2023-07-06T08:43:02.665Z,188.62
2023-07-06T08:44:02.628Z,190.05
2023-07-06T08:45:02.649Z,191.37
2023-07-06T08:46:02.597Z,190.99
2023-07-06T08:47:02.642Z,188.57
2023-07-06T08:48:02.594Z,190.61
2023-07-06T08:49:02.541Z,189.82
2023-07-06T08:50:02.530Z,190.21
2023-07-06T08:51:02.512Z,191.79
2023-07-06T08:52:02.489Z,187.91
2023-07-06T08:53:02.477Z,188.55
2023-07-06T08:54:02.458Z,191.67
2023-07-06T08:55:02.450Z,187.47
2023-07-06T08:56:02.449Z,191.10
2023-07-06T08:57:02.405Z,190.00
2023-07-06T08:58:02.397Z,188.38
2023-07-06T08:59:02.424Z,190.27
2023-07-06T09:00:02.368Z,189.48
2023-07-06T09:01:02.396Z,195.12
2023-07-06T09:02:02.353Z,191.71
2023-07-06T09:03:02.420Z,191.29
2023-07-06T09:04:02.365Z,187.82
2023-07-06T09:05:02.296Z,189.49
2023-07-06T09:06:02.281Z,190.23
2023-07-06T09:07:02.268Z,190.60
2023-07-06T09:08:02.275Z,189.47
2023-07-06T09:09:02.249Z,189.80
2023-07-06T09:10:17.955Z,187.21
2023-07-06T09:11:16.806Z,187.37
2023-07-06T09:12:03.243Z,187.76
2023-07-06T09:13:02.225Z,188.56
2023-07-06T09:14:02.269Z,189.65
2023-07-06T09:15:02.190Z,190.45
2023-07-06T09:16:02.156Z,189.68
2023-07-06T09:17:02.163Z,193.42
2023-07-06T09:18:02.131Z,186.05
2023-07-06T09:19:02.101Z,190.42
2023-07-06T09:20:02.086Z,187.04
2023-07-06T09:21:02.075Z,187.62
2023-07-06T09:22:02.064Z,188.29
2023-07-06T09:23:02.029Z,189.56
2023-07-06T09:24:02.021Z,190.39
2023-07-06T09:25:01.983Z,187.37
2023-07-06T09:26:01.972Z,187.07
2023-07-06T09:27:02.167Z,186.57
2023-07-06T09:28:01.926Z,187.12
2023-07-06T09:29:01.900Z,186.54
2023-07-06T09:30:02.249Z,184.10
2023-07-06T09:31:01.886Z,186.98
2023-07-06T09:32:01.857Z,186.27
2023-07-06T09:33:01.903Z,187.57
2023-07-06T09:34:01.833Z,185.78
2023-07-06T09:35:01.808Z,186.73
2023-07-06T09:36:02.038Z,185.83
2023-07-06T09:37:01.768Z,187.59
2023-07-06T09:38:01.773Z,186.61
2023-07-06T09:39:01.726Z,185.83
2023-07-06T09:40:01.747Z,183.81
2023-07-06T09:41:01.694Z,185.52
2023-07-06T09:42:01.671Z,188.64
2023-07-06T09:43:01.652Z,187.32
2023-07-06T09:44:01.774Z,188.91
2023-07-06T09:45:01.632Z,188.36
2023-07-06T09:46:02.618Z,184.87
2023-07-06T09:47:01.617Z,184.68
2023-07-06T09:48:01.609Z,187.39
2023-07-06T09:49:01.521Z,185.27
2023-07-06T09:50:01.503Z,185.78
2023-07-06T09:51:01.493Z,186.23
2023-07-06T09:52:01.496Z,189.57
2023-07-06T09:53:01.447Z,188.14
2023-07-06T09:54:01.458Z,185.62
2023-07-06T09:55:01.475Z,185.78
2023-07-06T09:56:01.376Z,186.19
2023-07-06T09:57:01.377Z,185.62
2023-07-06T09:58:01.344Z,186.46
2023-07-06T09:59:01.342Z,186.30
2023-07-06T10:00:01.307Z,186.93
2023-07-06T10:01:01.282Z,188.74
2023-07-06T10:02:01.301Z,189.88
2023-07-06T10:03:01.279Z,187.73
2023-07-06T10:04:01.215Z,187.66
2023-07-06T10:05:01.231Z,186.22
2023-07-06T10:06:01.170Z,187.89
2023-07-06T10:07:01.172Z,188.18
2023-07-06T10:08:01.117Z,189.26
2023-07-06T10:09:01.101Z,187.76
2023-07-06T10:10:01.076Z,190.98
2023-07-06T10:11:01.101Z,184.71
2023-07-06T10:12:01.028Z,187.46
2023-07-06T10:13:01.017Z,190.63
2023-07-06T10:14:01.072Z,185.72
2023-07-06T10:15:00.977Z,187.23
2023-07-06T10:16:00.935Z,187.37
2023-07-06T10:17:00.933Z,191.06
2023-07-06T10:18:00.944Z,186.63
2023-07-06T10:19:00.975Z,190.53
2023-07-06T10:20:00.939Z,189.09
2023-07-06T10:21:00.925Z,188.61
2023-07-06T10:22:00.962Z,189.22
2023-07-06T10:23:00.988Z,187.50
2023-07-06T10:24:01.029Z,188.01
2023-07-06T10:25:01.040Z,190.49
2023-07-06T10:26:02.139Z,186.09
2023-07-06T10:27:01.115Z,187.01
2023-07-06T10:28:01.171Z,189.50
2023-07-06T10:29:01.164Z,189.44
2023-07-06T10:30:01.193Z,187.67
2023-07-06T10:31:01.233Z,189.42
2023-07-06T10:32:01.284Z,186.85
2023-07-06T10:33:01.304Z,184.80
2023-07-06T10:34:01.299Z,188.18
2023-07-06T10:35:01.340Z,188.60
2023-07-06T10:36:01.372Z,190.49
2023-07-06T10:37:01.393Z,185.65
2023-07-06T10:38:01.418Z,188.02
2023-07-06T10:39:01.446Z,186.67
2023-07-06T10:40:01.482Z,189.34
2023-07-06T10:41:01.502Z,184.60
2023-07-06T10:42:01.536Z,188.65
2023-07-06T10:43:01.549Z,185.91
2023-07-06T10:44:01.592Z,185.82
2023-07-06T10:45:01.637Z,184.87
2023-07-06T10:46:01.742Z,184.03
2023-07-06T10:47:01.675Z,185.24
2023-07-06T10:48:01.747Z,183.66
2023-07-06T10:49:01.738Z,187.15
2023-07-06T10:50:01.776Z,187.78
2023-07-06T10:51:01.813Z,184.82
2023-07-06T10:52:01.815Z,183.60
2023-07-06T10:53:01.854Z,187.15
2023-07-06T10:54:01.891Z,193.44
2023-07-06T10:55:01.909Z,182.51
2023-07-06T10:56:01.928Z,185.94
2023-07-06T10:57:01.966Z,186.55
2023-07-06T10:58:01.978Z,184.14
2023-07-06T10:59:01.989Z,183.42
2023-07-06T11:00:02.016Z,184.24
2023-07-06T11:01:02.075Z,182.63
2023-07-06T11:02:02.049Z,185.39
2023-07-06T11:03:02.125Z,183.83
2023-07-06T11:04:02.361Z,183.72
2023-07-06T11:05:02.109Z,186.76
2023-07-06T11:06:02.119Z,185.19
2023-07-06T11:07:02.160Z,181.61
2023-07-06T11:08:02.182Z,184.26
2023-07-06T11:09:02.202Z,183.35
2023-07-06T11:10:02.251Z,182.30
2023-07-06T11:11:02.290Z,187.05
2023-07-06T11:12:02.290Z,184.17
2023-07-06T11:13:02.294Z,182.97
2023-07-06T11:14:02.344Z,185.17
2023-07-06T11:15:02.311Z,182.64
2023-07-06T11:16:05.267Z,182.28
2023-07-06T11:17:02.239Z,182.47
2023-07-06T11:18:02.319Z,182.62
2023-07-06T11:19:02.209Z,182.36
2023-07-06T11:20:02.200Z,181.72
2023-07-06T11:21:02.169Z,182.11
2023-07-06T11:22:02.146Z,180.97
2023-07-06T11:23:02.322Z,180.85
2023-07-06T11:24:02.103Z,179.98
2023-07-06T11:25:02.070Z,181.40
2023-07-06T11:26:02.060Z,185.42
2023-07-06T11:27:02.034Z,182.00
2023-07-06T11:28:02.013Z,180.55
2023-07-06T11:29:01.995Z,178.43
2023-07-06T11:30:01.965Z,185.29
2023-07-06T11:31:01.952Z,182.43
2023-07-06T11:32:01.911Z,178.59
2023-07-06T11:33:01.939Z,179.24
2023-07-06T11:34:01.867Z,178.91
2023-07-06T11:35:01.849Z,181.88
2023-07-06T11:36:01.832Z,179.74
2023-07-06T11:37:01.805Z,184.26
2023-07-06T11:38:01.791Z,178.08
2023-07-06T11:39:01.809Z,180.75
2023-07-06T11:40:01.743Z,179.69
2023-07-06T11:41:01.748Z,181.92
2023-07-06T11:42:01.720Z,180.11
2023-07-06T11:43:01.685Z,179.80
2023-07-06T11:44:01.670Z,181.95
2023-07-06T11:45:01.656Z,179.60
2023-07-06T11:46:01.598Z,179.50
2023-07-06T11:47:03.364Z,177.48
2023-07-06T11:48:01.647Z,177.15
2023-07-06T11:49:01.546Z,178.99
2023-07-06T11:50:01.533Z,178.09
2023-07-06T11:51:01.514Z,182.46
2023-07-06T11:52:01.508Z,177.74
2023-07-06T11:53:01.480Z,180.25
2023-07-06T11:54:01.462Z,179.08
2023-07-06T11:55:01.439Z,179.61
2023-07-06T11:56:01.436Z,178.87
2023-07-06T11:57:01.413Z,177.38
2023-07-06T11:58:01.390Z,179.00
2023-07-06T11:59:01.383Z,178.69
2023-07-06T12:00:01.380Z,178.09
2023-07-06T12:01:01.436Z,178.70
2023-07-06T12:02:01.314Z,177.43
2023-07-06T12:03:01.435Z,178.31
2023-07-06T12:04:01.290Z,178.86
2023-07-06T12:05:01.290Z,175.26
2023-07-06T12:06:01.288Z,177.32
2023-07-06T12:07:01.276Z,177.61
2023-07-06T12:08:01.310Z,177.83
2023-07-06T12:09:01.328Z,174.83
2023-07-06T12:10:01.344Z,178.99
2023-07-06T12:11:01.372Z,178.88
2023-07-06T12:12:01.411Z,178.02
2023-07-06T12:13:01.438Z,176.90
2023-07-06T12:14:01.515Z,173.99
2023-07-06T12:15:01.519Z,176.80
2023-07-06T12:16:01.770Z,175.60
2023-07-06T12:17:01.589Z,176.95
2023-07-06T12:18:03.570Z,173.70
2023-07-06T12:19:01.650Z,176.63
2023-07-06T12:20:01.701Z,176.55
2023-07-06T12:21:01.660Z,175.54
2023-07-06T12:22:01.663Z,176.96
2023-07-06T12:23:01.698Z,176.64
2023-07-06T12:24:01.668Z,178.69
2023-07-06T12:25:01.662Z,175.78
2023-07-06T12:26:01.651Z,174.72
2023-07-06T12:27:01.647Z,175.13
2023-07-06T12:28:01.629Z,176.49
2023-07-06T12:29:01.615Z,175.27